createdAt,value
2023-02-04T00:00:13.698Z,91.38
2023-02-04T00:02:41.519Z,90.18
2023-02-04T00:05:10.647Z,87.99
2023-02-04T00:07:41.419Z,87.67
2023-02-04T00:10:09.580Z,87.05
2023-02-04T00:12:36.732Z,87.59
2023-02-04T00:15:04.524Z,88.05
2023-02-04T00:17:31.529Z,90.18
2023-02-04T00:19:58.332Z,92.84
2023-02-04T00:22:26.900Z,90.00
2023-02-04T00:24:53.694Z,89.57
2023-02-04T00:27:23.101Z,91.07
2023-02-04T00:29:50.035Z,92.80
2023-02-04T00:32:17.297Z,92.59
2023-02-04T00:34:44.208Z,90.74
2023-02-04T00:37:11.426Z,91.28
2023-02-04T00:39:38.383Z,89.81
2023-02-04T00:42:06.003Z,89.04
2023-02-04T00:44:36.779Z,89.77
2023-02-04T00:47:04.621Z,86.29
2023-02-04T00:49:31.907Z,84.30
2023-02-04T00:51:59.061Z,83.45
2023-02-04T00:54:26.409Z,85.09
2023-02-04T00:56:53.261Z,86.86
2023-02-04T00:59:21.342Z,86.96
2023-02-04T01:01:48.342Z,85.54
2023-02-04T01:04:15.246Z,86.68
2023-02-04T01:06:42.160Z,89.72
2023-02-04T01:09:09.399Z,89.89
2023-02-04T01:11:36.644Z,89.17
2023-02-04T01:14:03.581Z,90.26
2023-02-04T01:16:30.623Z,89.71
2023-02-04T01:18:57.596Z,91.35
2023-02-04T01:21:24.736Z,92.66
2023-02-04T01:23:51.923Z,94.90
2023-02-04T01:26:20.093Z,96.79
2023-02-04T01:28:47.316Z,97.33
2023-02-04T01:31:14.700Z,99.30
2023-02-04T01:33:42.035Z,99.98
2023-02-04T01:36:09.480Z,100.00
2023-02-04T01:38:36.539Z,100.00
2023-02-04T01:41:04.362Z,100.00
2023-02-04T01:43:32.420Z,100.00
2023-02-04T01:45:59.961Z,100.00
2023-02-04T01:48:27.169Z,100.00
2023-02-04T01:51:03.466Z,100.00
2023-02-04T01:53:30.539Z,100.00
2023-02-04T01:55:57.737Z,100.00
2023-02-04T01:58:25.483Z,100.00
2023-02-04T02:00:52.712Z,100.00
2023-02-04T02:03:19.761Z,100.00
2023-02-04T02:05:48.543Z,100.00
2023-02-04T02:08:16.822Z,100.00
2023-02-04T02:10:46.364Z,100.00
2023-02-04T02:13:17.568Z,100.00
2023-02-04T02:15:45.133Z,100.00
2023-02-04T02:18:12.718Z,100.00
2023-02-04T02:20:40.233Z,100.00
2023-02-04T02:23:15.804Z,100.00
2023-02-04T02:25:45.119Z,100.00
2023-02-04T02:28:16.411Z,100.00
2023-02-04T02:30:47.691Z,100.00
2023-02-04T02:33:17.528Z,100.00
2023-02-04T02:35:48.585Z,100.00
2023-02-04T02:38:19.487Z,100.00
2023-02-04T02:40:48.210Z,100.00
2023-02-04T02:43:17.984Z,100.00
2023-02-04T02:45:46.020Z,100.00
2023-02-04T02:48:13.275Z,100.00
2023-02-04T02:50:42.360Z,100.00
2023-02-04T02:53:13.975Z,100.00
2023-02-04T02:55:50.620Z,100.00
2023-02-04T03:01:21.472Z,100.00
2023-02-04T03:03:52.121Z,100.00
2023-02-04T03:06:26.941Z,100.00
2023-02-04T03:08:56.249Z,100.00
2023-02-04T03:11:23.955Z,100.00
2023-02-04T03:13:52.837Z,100.00
2023-02-04T03:16:23.314Z,100.00
2023-02-04T03:18:53.261Z,100.00
2023-02-04T03:21:20.400Z,100.00
2023-02-04T03:23:49.774Z,100.00
2023-02-04T03:26:17.027Z,100.00
2023-02-04T03:28:44.339Z,100.00
2023-02-04T03:31:11.240Z,100.00
2023-02-04T03:33:38.265Z,100.00
2023-02-04T03:36:05.483Z,100.00
2023-02-04T03:38:34.124Z,100.00
2023-02-04T03:41:01.581Z,100.00
2023-02-04T03:43:28.480Z,100.00
2023-02-04T03:45:55.344Z,100.00
2023-02-04T03:48:28.511Z,100.00
2023-02-04T03:50:55.606Z,100.00
2023-02-04T03:53:23.072Z,100.00
2023-02-04T03:55:50.006Z,100.00
2023-02-04T03:58:16.828Z,100.00
2023-02-04T04:00:43.780Z,100.00
2023-02-04T04:03:10.771Z,100.00
2023-02-04T04:05:37.780Z,100.00
2023-02-04T04:08:05.228Z,100.00
2023-02-04T04:10:35.581Z,100.00
2023-02-04T04:13:02.680Z,100.00
2023-02-04T04:15:29.643Z,100.00
2023-02-04T04:17:59.509Z,100.00
2023-02-04T04:20:35.530Z,100.00
2023-02-04T04:25:55.985Z,100.00
2023-02-04T04:31:15.313Z,100.00
2023-02-04T04:33:42.896Z,100.00
2023-02-04T04:36:10.075Z,100.00
2023-02-04T04:38:37.704Z,100.00
2023-02-04T04:41:04.647Z,100.00
2023-02-04T04:43:31.521Z,100.00
2023-02-04T04:45:58.526Z,100.00
2023-02-04T04:48:25.743Z,100.00
2023-02-04T04:50:52.613Z,100.00
2023-02-04T04:53:19.947Z,100.00
2023-02-04T04:55:47.976Z,100.00
2023-02-04T04:58:33.743Z,100.00
2023-02-04T05:01:00.878Z,100.00
2023-02-04T05:03:27.807Z,100.00
2023-02-04T05:05:54.973Z,100.00
2023-02-04T05:08:21.763Z,100.00
2023-02-04T05:10:49.394Z,100.00
2023-02-04T05:13:17.892Z,100.00
2023-02-04T05:15:48.260Z,100.00
2023-02-04T05:18:15.248Z,100.00
2023-02-04T05:20:42.473Z,100.00
2023-02-04T05:23:09.393Z,100.00
2023-02-04T05:25:36.586Z,100.00
2023-02-04T05:28:08.875Z,100.00
2023-02-04T05:30:36.106Z,100.00
2023-02-04T05:33:04.159Z,100.00
2023-02-04T05:35:31.055Z,100.00
2023-02-04T05:37:57.872Z,100.00
2023-02-04T05:40:24.719Z,100.00
2023-02-04T05:43:00.428Z,100.00
2023-02-04T05:45:37.076Z,100.00
2023-02-04T05:48:13.555Z,100.00
2023-02-04T05:50:42.801Z,100.00
2023-02-04T05:53:10.008Z,100.00
2023-02-04T05:55:36.938Z,100.00
2023-02-04T05:58:05.110Z,100.00
2023-02-04T06:00:37.061Z,100.00
2023-02-04T06:03:04.239Z,100.00
2023-02-04T06:05:31.795Z,100.00
2023-02-04T06:07:59.074Z,100.00
2023-02-04T06:10:27.135Z,100.00
2023-02-04T06:13:04.923Z,100.00
2023-02-04T06:15:33.006Z,100.00
2023-02-04T06:18:02.910Z,100.00
2023-02-04T06:20:35.536Z,100.00
2023-02-04T06:23:04.766Z,100.00
2023-02-04T06:25:31.721Z,100.00
2023-02-04T06:27:58.802Z,100.00
2023-02-04T06:30:25.898Z,100.00
2023-02-04T06:33:08.158Z,100.00
2023-02-04T06:35:35.085Z,100.00
2023-02-04T06:38:01.884Z,100.00
2023-02-04T06:40:28.783Z,100.00
2023-02-04T06:42:55.729Z,100.00
2023-02-04T06:45:22.748Z,100.00
2023-02-04T06:47:49.790Z,100.00
2023-02-04T06:50:19.278Z,100.00
2023-02-04T06:52:49.485Z,100.00
2023-02-04T06:55:17.710Z,100.00
2023-02-04T06:57:46.854Z,100.00
2023-02-04T07:00:13.969Z,100.00
2023-02-04T07:02:42.595Z,100.00
2023-02-04T07:05:10.142Z,100.00
2023-02-04T07:07:36.875Z,100.00
2023-02-04T07:10:04.520Z,100.00
2023-02-04T07:12:31.457Z,100.00
2023-02-04T07:14:58.437Z,100.00
2023-02-04T07:17:30.984Z,100.00
2023-02-04T07:19:58.134Z,100.00
2023-02-04T07:22:25.091Z,100.00
2023-02-04T07:24:52.106Z,100.00
2023-02-04T07:27:19.193Z,100.00
2023-02-04T07:29:46.174Z,100.00
2023-02-04T07:32:15.533Z,100.00
2023-02-04T07:34:42.557Z,100.00
2023-02-04T07:37:09.428Z,100.00
2023-02-04T07:39:36.660Z,100.00
2023-02-04T07:42:03.849Z,100.00
2023-02-04T07:44:30.843Z,100.00
2023-02-04T07:47:03.256Z,100.00
2023-02-04T07:49:30.462Z,100.00
2023-02-04T07:51:58.150Z,100.00
2023-02-04T07:54:25.085Z,100.00
2023-02-04T07:56:52.011Z,100.00
2023-02-04T07:59:20.013Z,100.00
2023-02-04T08:01:51.614Z,100.00
2023-02-04T08:04:18.613Z,100.00
2023-02-04T08:06:45.462Z,100.00
2023-02-04T08:09:12.665Z,100.00
2023-02-04T08:11:39.494Z,100.00
2023-02-04T08:14:08.740Z,100.00
2023-02-04T08:16:41.160Z,100.00
2023-02-04T08:19:07.965Z,100.00
2023-02-04T08:21:40.599Z,100.00
2023-02-04T08:24:07.514Z,100.00
2023-02-04T08:26:34.224Z,100.00
2023-02-04T08:29:01.082Z,100.00
2023-02-04T08:31:28.401Z,100.00
2023-02-04T08:33:57.770Z,100.00
2023-02-04T08:36:24.740Z,100.00
2023-02-04T08:38:51.761Z,100.00
2023-02-04T08:41:18.547Z,100.00
2023-02-04T08:43:45.510Z,100.00
2023-02-04T08:46:12.834Z,100.00
2023-02-04T08:48:39.997Z,100.00
2023-02-04T08:51:07.066Z,100.00
2023-02-04T08:53:34.055Z,100.00
2023-02-04T08:56:04.071Z,100.00
2023-02-04T08:58:33.389Z,100.00
2023-02-04T09:01:00.416Z,100.00
2023-02-04T09:03:29.260Z,100.00
2023-02-04T09:05:56.434Z,100.00
2023-02-04T09:08:23.877Z,100.00
2023-02-04T09:10:50.932Z,100.00
2023-02-04T09:13:18.717Z,100.00
2023-02-04T09:15:45.600Z,100.00
2023-02-04T09:18:17.685Z,100.00
2023-02-04T09:20:45.457Z,100.00
2023-02-04T09:23:13.594Z,100.00
2023-02-04T09:25:41.313Z,100.00
2023-02-04T09:28:12.810Z,100.00
2023-02-04T09:30:41.136Z,100.00
2023-02-04T09:33:09.618Z,100.00
2023-02-04T09:35:36.639Z,100.00
2023-02-04T09:38:04.211Z,100.00
2023-02-04T09:40:37.617Z,100.00
2023-02-04T09:43:08.931Z,100.00
2023-02-04T09:45:37.442Z,100.00
2023-02-04T09:48:10.036Z,100.00
2023-02-04T09:50:37.749Z,100.00
2023-02-04T09:53:06.684Z,100.00
2023-02-04T09:55:38.343Z,100.00
2023-02-04T09:58:22.924Z,100.00
2023-02-04T10:01:21.343Z,100.00
2023-02-04T10:03:54.395Z,100.00
2023-02-04T10:06:25.616Z,100.00
2023-02-04T10:08:56.128Z,100.00
2023-02-04T10:11:25.866Z,100.00
2023-02-04T10:13:55.277Z,100.00
2023-02-04T10:16:30.423Z,100.00
2023-02-04T10:19:12.853Z,100.00
2023-02-04T10:21:40.689Z,100.00
2023-02-04T10:24:19.055Z,100.00
2023-02-04T10:26:57.150Z,100.00
2023-02-04T10:29:44.830Z,100.00
2023-02-04T10:32:32.555Z,100.00
2023-02-04T10:35:03.585Z,100.00
2023-02-04T10:37:32.402Z,100.00
2023-02-04T10:39:59.354Z,100.00
2023-02-04T10:42:28.653Z,100.00
2023-02-04T10:44:55.798Z,100.00
2023-02-04T10:47:25.583Z,100.00
2023-02-04T10:50:06.488Z,100.00
2023-02-04T10:55:27.350Z,100.00
2023-02-04T10:57:54.442Z,100.00
2023-02-04T11:00:24.282Z,100.00
2023-02-04T11:03:05.660Z,100.00
2023-02-04T11:05:36.517Z,100.00
2023-02-04T11:08:19.560Z,100.00
2023-02-04T11:10:47.059Z,100.00
2023-02-04T11:13:39.541Z,100.00
2023-02-04T11:16:14.893Z,100.00
2023-02-04T11:18:50.717Z,100.00
2023-02-04T11:21:27.760Z,100.00
2023-02-04T11:24:25.793Z,100.00
2023-02-04T11:27:05.850Z,100.00
2023-02-04T11:29:36.617Z,100.00
2023-02-04T11:32:30.609Z,100.00
2023-02-04T11:35:13.507Z,100.00
2023-02-04T11:37:42.776Z,100.00
2023-02-04T11:40:42.160Z,100.00
2023-02-04T11:43:14.359Z,100.00
2023-02-04T11:45:42.393Z,100.00
2023-02-04T11:48:15.653Z,100.00
2023-02-04T11:50:42.601Z,100.00
2023-02-04T11:53:12.275Z,100.00
2023-02-04T11:55:47.396Z,100.00
2023-02-04T11:58:19.566Z,100.00
2023-02-04T12:00:46.865Z,100.00
2023-02-04T12:03:31.642Z,100.00
2023-02-04T12:05:59.456Z,100.00
2023-02-04T12:08:37.082Z,100.00
2023-02-04T12:11:11.664Z,100.00
2023-02-04T12:13:53.393Z,100.00
2023-02-04T12:16:20.854Z,100.00
2023-02-04T12:18:47.648Z,100.00
2023-02-04T12:21:14.656Z,100.00
2023-02-04T12:23:44.561Z,100.00
2023-02-04T12:26:12.081Z,100.00
2023-02-04T12:28:38.968Z,100.00
2023-02-04T12:31:06.086Z,100.00
2023-02-04T12:33:33.081Z,100.00
2023-02-04T12:35:59.867Z,100.00
2023-02-04T12:38:28.133Z,100.00
2023-02-04T12:40:55.038Z,100.00
2023-02-04T12:43:21.857Z,100.00
2023-02-04T12:45:50.212Z,100.00
2023-02-04T12:48:17.290Z,100.00
2023-02-04T12:50:44.174Z,100.00
2023-02-04T12:53:11.188Z,100.00
2023-02-04T12:55:38.065Z,100.00
2023-02-04T12:58:05.008Z,100.00
2023-02-04T13:00:32.037Z,100.00
2023-02-04T13:02:59.322Z,100.00
2023-02-04T13:05:27.070Z,100.00
2023-02-04T13:07:54.015Z,100.00
2023-02-04T13:10:22.018Z,100.00
2023-02-04T13:12:48.833Z,100.00
2023-02-04T13:15:16.253Z,100.00
2023-02-04T13:17:43.535Z,100.00
2023-02-04T13:20:11.079Z,100.00
2023-02-04T13:22:38.026Z,100.00
2023-02-04T13:25:06.288Z,100.00
2023-02-04T13:27:33.232Z,100.00
2023-02-04T13:30:00.210Z,100.00
2023-02-04T13:32:27.435Z,100.00
2023-02-04T13:34:54.184Z,100.00
2023-02-04T13:37:20.993Z,100.00
2023-02-04T13:39:48.026Z,100.00
2023-02-04T13:42:18.053Z,100.00
2023-02-04T13:44:48.125Z,100.00
2023-02-04T13:47:15.105Z,100.00
2023-02-04T13:49:42.223Z,100.00
2023-02-04T13:52:09.154Z,100.00
2023-02-04T13:54:36.812Z,100.00
2023-02-04T13:57:06.869Z,100.00
2023-02-04T13:59:34.056Z,100.00
2023-02-04T14:02:01.093Z,100.00
2023-02-04T14:04:27.944Z,100.00
2023-02-04T14:06:55.987Z,100.00
2023-02-04T14:09:23.395Z,100.00
2023-02-04T14:11:50.414Z,100.00
2023-02-04T14:14:17.445Z,100.00
2023-02-04T14:16:44.680Z,100.00
2023-02-04T14:19:11.609Z,100.00
2023-02-04T14:21:38.459Z,100.00
2023-02-04T14:24:05.460Z,100.00
2023-02-04T14:26:35.525Z,100.00
2023-02-04T14:29:07.649Z,100.00
2023-02-04T14:31:36.727Z,100.00
2023-02-04T14:34:03.916Z,100.00
2023-02-04T14:36:31.342Z,100.00
2023-02-04T14:38:58.199Z,100.00
2023-02-04T14:41:26.506Z,100.00
2023-02-04T14:43:53.893Z,100.00
2023-02-04T14:46:20.619Z,100.00
2023-02-04T14:48:47.486Z,100.00
2023-02-04T14:51:14.335Z,100.00
2023-02-04T14:53:46.084Z,100.00
2023-02-04T14:56:18.333Z,100.00
2023-02-04T14:58:45.532Z,100.00
2023-02-04T15:01:12.266Z,100.00
2023-02-04T15:03:39.285Z,100.00
2023-02-04T15:06:06.494Z,100.00
2023-02-04T15:08:33.608Z,100.00
2023-02-04T15:11:00.880Z,100.00
2023-02-04T15:13:28.772Z,100.00
2023-02-04T15:15:55.656Z,100.00
2023-02-04T15:18:22.888Z,100.00
2023-02-04T15:20:49.976Z,100.00
2023-02-04T15:23:25.872Z,100.00
2023-02-04T15:26:06.515Z,100.00
2023-02-04T15:28:33.346Z,100.00
2023-02-04T15:31:00.303Z,100.00
2023-02-04T15:33:27.241Z,100.00
2023-02-04T15:35:54.413Z,100.00
2023-02-04T15:38:29.403Z,100.00
2023-02-04T15:40:56.700Z,100.00
2023-02-04T15:44:02.768Z,100.00
2023-02-04T15:46:32.361Z,100.00
2023-02-04T15:48:59.585Z,100.00
2023-02-04T15:51:26.663Z,100.00
2023-02-04T15:54:01.577Z,100.00
2023-02-04T15:56:28.450Z,100.00
2023-02-04T15:59:01.427Z,100.00
2023-02-04T16:01:31.993Z,100.00
2023-02-04T16:03:59.420Z,100.00
2023-02-04T16:06:29.001Z,100.00
2023-02-04T16:08:55.684Z,100.00
2023-02-04T16:11:22.786Z,100.00
2023-02-04T16:13:49.457Z,100.00
2023-02-04T16:16:16.200Z,100.00
2023-02-04T16:18:43.601Z,100.00
2023-02-04T16:21:10.412Z,100.00
2023-02-04T16:23:37.273Z,100.00
2023-02-04T16:26:04.549Z,100.00
2023-02-04T16:28:31.437Z,100.00
2023-02-04T16:30:58.424Z,100.00
2023-02-04T16:33:27.052Z,100.00
2023-02-04T16:36:02.595Z,100.00
2023-02-04T16:38:30.703Z,100.00
2023-02-04T16:40:57.679Z,100.00
2023-02-04T16:43:24.716Z,100.00
2023-02-04T16:45:52.279Z,100.00
2023-02-04T16:48:18.885Z,100.00
2023-02-04T16:50:45.676Z,100.00
2023-02-04T16:53:16.434Z,100.00
2023-02-04T16:55:44.414Z,100.00
2023-02-04T16:58:12.381Z,100.00
2023-02-04T17:00:42.564Z,100.00
2023-02-04T17:03:10.522Z,100.00
2023-02-04T17:05:37.882Z,100.00
2023-02-04T17:08:05.722Z,100.00
2023-02-04T17:10:51.485Z,100.00
2023-02-04T17:13:19.020Z,100.00
2023-02-04T17:15:45.809Z,100.00
2023-02-04T17:18:12.534Z,100.00
2023-02-04T17:20:39.451Z,100.00
2023-02-04T17:23:06.400Z,100.00
2023-02-04T17:25:33.707Z,100.00
2023-02-04T17:28:01.013Z,100.00
2023-02-04T17:30:27.956Z,100.00
2023-02-04T17:32:54.670Z,100.00
2023-02-04T17:35:21.740Z,100.00
2023-02-04T17:37:48.714Z,100.00
2023-02-04T17:40:15.647Z,100.00
2023-02-04T17:42:42.606Z,100.00
2023-02-04T17:45:10.988Z,100.00
2023-02-04T17:47:41.242Z,100.00
2023-02-04T17:50:10.086Z,100.00
2023-02-04T17:52:38.442Z,100.00
2023-02-04T17:55:29.047Z,100.00
2023-02-04T17:57:58.670Z,100.00
2023-02-04T18:00:29.140Z,100.00
2023-02-04T18:02:56.334Z,100.00
2023-02-04T18:05:29.212Z,100.00
2023-02-04T18:08:11.657Z,100.00
2023-02-04T18:10:41.641Z,100.00
2023-02-04T18:13:22.321Z,100.00
2023-02-04T18:15:55.334Z,100.00
2023-02-04T18:18:36.756Z,100.00
2023-02-04T18:21:19.864Z,100.00
2023-02-04T18:23:47.754Z,100.00
2023-02-04T18:26:22.271Z,100.00
2023-02-04T18:28:52.609Z,100.00
2023-02-04T18:31:25.708Z,100.00
2023-02-04T18:33:52.645Z,100.00
2023-02-04T18:36:20.865Z,100.00
2023-02-04T18:38:47.845Z,100.00
2023-02-04T18:41:31.790Z,100.00
2023-02-04T18:44:17.649Z,100.00
2023-02-04T18:46:48.057Z,100.00
2023-02-04T18:49:29.458Z,100.00
2023-02-04T18:51:58.995Z,100.00
2023-02-04T18:54:37.497Z,100.00
2023-02-04T18:57:29.780Z,100.00
2023-02-04T19:00:12.424Z,100.00
2023-02-04T19:02:49.327Z,100.00
2023-02-04T19:05:23.641Z,99.50
2023-02-04T19:07:51.491Z,97.98
2023-02-04T19:10:28.252Z,95.93
2023-02-04T19:13:11.046Z,94.53
2023-02-04T19:15:41.685Z,94.25
2023-02-04T19:18:44.692Z,94.13
2023-02-04T19:21:29.000Z,91.54
2023-02-04T19:24:21.977Z,90.92
2023-02-04T19:27:01.415Z,88.86
2023-02-04T19:29:36.897Z,88.59
2023-02-04T19:32:33.097Z,86.56
2023-02-04T19:35:12.750Z,86.97
2023-02-04T19:37:41.353Z,85.80
2023-02-04T19:40:28.964Z,87.29
2023-02-04T19:43:04.090Z,86.75
2023-02-04T19:45:31.131Z,85.72
2023-02-04T19:47:58.240Z,85.45
2023-02-04T19:50:35.199Z,85.88
2023-02-04T19:53:08.999Z,85.38
2023-02-04T19:55:42.634Z,84.25
2023-02-04T19:58:19.489Z,84.35
2023-02-04T20:00:54.427Z,84.57
2023-02-04T20:03:27.881Z,84.46
2023-02-04T20:05:59.676Z,85.99
2023-02-04T20:08:35.123Z,84.90
2023-02-04T20:11:26.049Z,85.12
2023-02-04T20:14:18.722Z,85.80
2023-02-04T20:17:00.773Z,85.30
2023-02-04T20:19:30.288Z,86.01
2023-02-04T20:22:26.563Z,86.52
2023-02-04T20:25:21.927Z,87.82
2023-02-04T20:27:55.502Z,88.50
2023-02-04T20:30:31.039Z,89.43
2023-02-04T20:33:12.873Z,90.59
2023-02-04T20:35:39.625Z,92.18
2023-02-04T20:38:17.582Z,92.38
2023-02-04T20:40:46.786Z,94.08
2023-02-04T20:43:17.257Z,95.27
2023-02-04T20:45:55.012Z,94.31
2023-02-04T20:48:33.198Z,94.47
2023-02-04T20:51:04.967Z,96.06
2023-02-04T20:53:48.173Z,99.68
2023-02-04T20:56:33.942Z,100.00
2023-02-04T20:59:12.978Z,100.00
2023-02-04T21:01:44.934Z,100.00
2023-02-04T21:04:39.389Z,100.00
2023-02-04T21:07:20.616Z,100.00
2023-02-04T21:09:48.306Z,100.00
2023-02-04T21:12:15.943Z,100.00
2023-02-04T21:14:44.541Z,100.00
2023-02-04T21:17:12.021Z,100.00
2023-02-04T21:19:39.115Z,100.00
2023-02-04T21:22:05.980Z,100.00
2023-02-04T21:24:33.381Z,100.00
2023-02-04T21:27:00.290Z,100.00
2023-02-04T21:29:27.262Z,100.00
2023-02-04T21:31:54.885Z,100.00
2023-02-04T21:34:21.910Z,100.00
2023-02-04T21:36:48.900Z,100.00
2023-02-04T21:39:15.874Z,100.00
2023-02-04T21:41:42.748Z,100.00
2023-02-04T21:44:09.448Z,100.00
2023-02-04T21:46:36.387Z,100.00
2023-02-04T21:49:05.040Z,100.00
2023-02-04T21:51:33.370Z,100.00
2023-02-04T21:54:00.992Z,100.00
2023-02-04T21:56:27.834Z,100.00
2023-02-04T21:58:54.587Z,100.00
2023-02-04T22:01:23.060Z,100.00
2023-02-04T22:03:49.824Z,100.00
2023-02-04T22:06:19.864Z,100.00
2023-02-04T22:08:46.719Z,100.00
2023-02-04T22:11:14.174Z,100.00
2023-02-04T22:13:41.932Z,100.00
2023-02-04T22:16:09.027Z,100.00
2023-02-04T22:18:36.028Z,100.00
2023-02-04T22:21:02.964Z,100.00
2023-02-04T22:23:30.234Z,100.00
2023-02-04T22:25:57.006Z,100.00
2023-02-04T22:28:27.047Z,100.00
2023-02-04T22:30:54.372Z,100.00
2023-02-04T22:33:21.480Z,100.00
2023-02-04T22:35:49.703Z,100.00
2023-02-04T22:38:16.504Z,100.00
2023-02-04T22:40:43.403Z,100.00
2023-02-04T22:43:10.284Z,100.00
2023-02-04T22:45:37.066Z,100.00
2023-02-04T22:48:03.913Z,100.00
2023-02-04T22:50:31.891Z,100.00
2023-02-04T22:52:58.676Z,100.00
2023-02-04T22:55:27.964Z,100.00
2023-02-04T22:57:54.713Z,100.00
2023-02-04T23:00:21.672Z,100.00
2023-02-04T23:02:50.797Z,100.00
2023-02-04T23:05:17.801Z,100.00
2023-02-04T23:07:44.669Z,100.00
2023-02-04T23:10:11.528Z,100.00
2023-02-04T23:12:38.851Z,100.00
2023-02-04T23:15:05.921Z,100.00
2023-02-04T23:17:33.860Z,100.00
2023-02-04T23:20:06.878Z,100.00
2023-02-04T23:22:41.391Z,100.00
2023-02-04T23:25:08.545Z,100.00
2023-02-04T23:27:35.360Z,100.00
2023-02-04T23:30:02.480Z,100.00
2023-02-04T23:32:29.894Z,100.00
2023-02-04T23:34:56.649Z,100.00
2023-02-04T23:37:24.094Z,100.00
2023-02-04T23:39:51.027Z,100.00
2023-02-04T23:42:17.877Z,100.00
2023-02-04T23:44:44.814Z,100.00
2023-02-04T23:47:11.792Z,100.00
2023-02-04T23:49:38.545Z,100.00
2023-02-04T23:52:07.595Z,100.00
2023-02-04T23:54:35.500Z,100.00
2023-02-04T23:57:07.967Z,100.00
2023-02-04T23:59:36.468Z,100.00
